createdAt,value
2023-05-13T00:01:19.127Z,14.65
2023-05-13T00:03:45.692Z,14.60
2023-05-13T00:06:12.698Z,14.62
2023-05-13T00:08:39.245Z,14.54
2023-05-13T00:11:05.910Z,14.53
2023-05-13T00:13:32.384Z,14.49
2023-05-13T00:15:58.923Z,14.42
2023-05-13T00:18:25.852Z,14.43
2023-05-13T00:20:52.465Z,14.38
2023-05-13T00:23:19.055Z,14.33
2023-05-13T00:25:45.480Z,14.28
2023-05-13T00:28:14.965Z,14.25
2023-05-13T00:30:45.725Z,14.25
2023-05-13T00:33:12.609Z,14.20
2023-05-13T00:35:39.154Z,14.22
2023-05-13T00:38:06.885Z,14.19
2023-05-13T00:40:37.398Z,14.21
2023-05-13T00:43:03.941Z,14.22
2023-05-13T00:45:30.601Z,14.24
2023-05-13T00:47:58.028Z,14.22
2023-05-13T00:50:24.979Z,14.18
2023-05-13T00:52:51.787Z,14.15
2023-05-13T00:55:18.291Z,14.11
2023-05-13T00:57:44.809Z,14.02
2023-05-13T01:00:11.744Z,13.97
2023-05-13T01:03:02.933Z,13.97
2023-05-13T01:05:47.517Z,13.88
2023-05-13T01:08:38.480Z,13.81
2023-05-13T01:11:13.767Z,13.75
2023-05-13T01:13:43.393Z,13.69
2023-05-13T01:16:21.412Z,13.62
2023-05-13T01:18:55.105Z,13.58
2023-05-13T01:21:28.274Z,13.54
2023-05-13T01:23:55.744Z,13.53
2023-05-13T01:26:23.400Z,13.50
2023-05-13T01:28:50.257Z,13.50
2023-05-13T01:31:17.830Z,13.41
2023-05-13T01:33:44.877Z,13.37
2023-05-13T01:36:11.693Z,13.33
2023-05-13T01:38:39.170Z,13.26
2023-05-13T01:41:05.684Z,13.21
2023-05-13T01:43:32.260Z,13.14
2023-05-13T01:46:01.681Z,13.12
2023-05-13T01:48:28.216Z,13.09
2023-05-13T01:50:55.071Z,13.01
2023-05-13T01:53:21.521Z,13.03
2023-05-13T01:55:48.004Z,12.95
2023-05-13T01:58:14.460Z,12.92
2023-05-13T02:00:40.970Z,12.89
2023-05-13T02:03:07.629Z,12.79
2023-05-13T02:05:34.198Z,12.75
2023-05-13T02:08:00.650Z,12.70
2023-05-13T02:10:27.133Z,12.61
2023-05-13T02:12:53.576Z,12.62
2023-05-13T02:15:20.394Z,12.55
2023-05-13T02:17:46.885Z,12.49
2023-05-13T02:20:14.697Z,12.41
2023-05-13T02:22:41.168Z,12.39
2023-05-13T02:25:08.232Z,12.32
2023-05-13T02:27:34.760Z,12.29
2023-05-13T02:30:01.296Z,12.22
2023-05-13T02:32:27.857Z,12.20
2023-05-13T02:34:54.308Z,12.21
2023-05-13T02:37:20.866Z,12.16
2023-05-13T02:39:47.330Z,12.17
2023-05-13T02:42:13.774Z,12.09
2023-05-13T02:44:40.609Z,12.07
2023-05-13T02:47:07.085Z,12.03
2023-05-13T02:49:33.577Z,11.95
2023-05-13T02:51:59.997Z,11.93
2023-05-13T02:54:26.507Z,11.94
2023-05-13T02:56:52.944Z,11.86
2023-05-13T02:59:19.405Z,11.89
2023-05-13T03:01:46.092Z,11.86
2023-05-13T03:04:12.555Z,11.83
2023-05-13T03:06:39.077Z,11.80
2023-05-13T03:09:05.698Z,11.81
2023-05-13T03:11:32.191Z,11.76
2023-05-13T03:13:58.664Z,11.76
2023-05-13T03:16:25.185Z,11.77
2023-05-13T03:18:51.714Z,11.72
2023-05-13T03:21:18.291Z,11.75
2023-05-13T03:23:44.777Z,11.68
2023-05-13T03:26:11.311Z,11.68
2023-05-13T03:28:37.747Z,11.68
2023-05-13T03:31:04.371Z,11.62
2023-05-13T03:33:30.888Z,11.61
2023-05-13T03:35:57.323Z,11.58
2023-05-13T03:38:23.760Z,11.53
2023-05-13T03:40:50.513Z,11.56
2023-05-13T03:43:16.994Z,11.53
2023-05-13T03:45:47.629Z,11.47
2023-05-13T03:48:15.373Z,11.44
2023-05-13T03:50:42.039Z,11.44
2023-05-13T03:53:08.841Z,11.40
2023-05-13T03:55:35.382Z,11.43
2023-05-13T03:58:11.482Z,11.38
2023-05-13T04:00:38.044Z,11.38
2023-05-13T04:03:04.582Z,11.40
2023-05-13T04:05:31.082Z,11.38
2023-05-13T04:07:57.575Z,11.39
2023-05-13T04:10:24.162Z,11.37
2023-05-13T04:12:50.801Z,11.37
2023-05-13T04:15:17.264Z,11.40
2023-05-13T04:17:43.892Z,11.40
2023-05-13T04:20:10.863Z,11.39
2023-05-13T04:22:37.286Z,11.40
2023-05-13T04:25:03.935Z,11.39
2023-05-13T04:27:30.485Z,11.41
2023-05-13T04:29:57.227Z,11.43
2023-05-13T04:32:23.865Z,11.45
2023-05-13T04:34:51.680Z,11.46
2023-05-13T04:37:18.242Z,11.48
2023-05-13T04:39:48.170Z,11.51
2023-05-13T04:42:16.351Z,11.53
2023-05-13T04:44:43.512Z,11.57
2023-05-13T04:47:10.644Z,11.60
2023-05-13T04:49:37.108Z,11.67
2023-05-13T04:52:05.056Z,11.71
2023-05-13T04:54:31.508Z,11.74
2023-05-13T04:56:57.963Z,11.78
2023-05-13T04:59:24.398Z,11.83
2023-05-13T05:01:50.934Z,11.81
2023-05-13T05:04:17.406Z,11.86
2023-05-13T05:06:43.899Z,11.92
2023-05-13T05:09:10.647Z,11.93
2023-05-13T05:11:38.456Z,11.97
2023-05-13T05:14:04.968Z,12.06
2023-05-13T05:16:31.545Z,12.10
2023-05-13T05:18:58.024Z,12.12
2023-05-13T05:21:24.816Z,12.12
2023-05-13T05:23:51.307Z,12.15
2023-05-13T05:26:17.829Z,12.22
2023-05-13T05:28:45.729Z,12.30
2023-05-13T05:31:12.302Z,12.30
2023-05-13T05:33:39.144Z,12.31
2023-05-13T05:36:06.050Z,12.35
2023-05-13T05:38:32.599Z,12.44
2023-05-13T05:40:59.018Z,12.49
2023-05-13T05:43:25.568Z,12.54
2023-05-13T05:45:52.205Z,12.58
2023-05-13T05:48:18.781Z,12.65
2023-05-13T05:50:45.313Z,12.67
2023-05-13T05:53:11.809Z,12.75
2023-05-13T05:55:38.275Z,12.77
2023-05-13T05:58:06.359Z,12.86
2023-05-13T06:00:35.936Z,12.89
2023-05-13T06:03:02.584Z,12.90
2023-05-13T06:05:29.292Z,12.97
2023-05-13T06:07:55.832Z,13.00
2023-05-13T06:10:22.451Z,13.03
2023-05-13T06:12:51.102Z,13.06
2023-05-13T06:15:17.701Z,13.04
2023-05-13T06:17:44.203Z,13.15
2023-05-13T06:20:11.297Z,13.15
2023-05-13T06:22:37.759Z,13.20
2023-05-13T06:25:04.706Z,13.27
2023-05-13T06:27:31.480Z,13.33
2023-05-13T06:29:57.897Z,13.39
2023-05-13T06:32:24.403Z,13.41
2023-05-13T06:34:54.559Z,13.46
2023-05-13T06:37:22.283Z,13.58
2023-05-13T06:39:48.747Z,13.65
2023-05-13T06:42:15.283Z,13.70
2023-05-13T06:44:41.755Z,13.78
2023-05-13T06:47:10.296Z,13.85
2023-05-13T06:49:36.902Z,13.93
2023-05-13T06:52:03.452Z,14.05
2023-05-13T06:54:30.354Z,14.15
2023-05-13T06:56:56.854Z,14.25
2023-05-13T06:59:23.585Z,14.30
2023-05-13T07:01:50.086Z,14.38
2023-05-13T07:04:16.600Z,14.43
2023-05-13T07:06:43.225Z,14.50
2023-05-13T07:09:09.797Z,14.61
2023-05-13T07:11:37.081Z,14.67
2023-05-13T07:14:03.702Z,14.73
2023-05-13T07:16:30.272Z,14.79
2023-05-13T07:18:56.810Z,14.65
2023-05-13T07:21:23.330Z,14.71
2023-05-13T07:23:49.843Z,14.93
2023-05-13T07:26:16.659Z,15.14
2023-05-13T07:28:43.622Z,15.30
2023-05-13T07:31:10.312Z,15.43
2023-05-13T07:33:37.145Z,15.45
2023-05-13T07:36:03.928Z,15.54
2023-05-13T07:38:30.385Z,15.52
2023-05-13T07:40:56.829Z,15.48
2023-05-13T07:43:27.839Z,15.49
2023-05-13T07:45:54.366Z,15.59
2023-05-13T07:48:20.872Z,15.66
2023-05-13T07:50:47.633Z,15.77
2023-05-13T07:53:14.310Z,15.88
2023-05-13T07:55:41.455Z,15.94
2023-05-13T07:58:07.951Z,15.99
2023-05-13T08:00:34.466Z,16.08
2023-05-13T08:03:01.174Z,16.22
2023-05-13T08:05:27.831Z,16.22
2023-05-13T08:07:54.282Z,16.39
2023-05-13T08:10:21.167Z,16.56
2023-05-13T08:12:52.165Z,16.63
2023-05-13T08:15:19.370Z,16.67
2023-05-13T08:17:45.997Z,16.64
2023-05-13T08:20:12.605Z,16.61
2023-05-13T08:22:39.064Z,16.68
2023-05-13T08:25:05.892Z,16.79
2023-05-13T08:27:32.474Z,16.86
2023-05-13T08:29:58.954Z,16.86
2023-05-13T08:32:25.525Z,16.89
2023-05-13T08:34:52.036Z,16.96
2023-05-13T08:37:18.451Z,17.02
2023-05-13T08:39:45.026Z,17.04
2023-05-13T08:42:11.728Z,17.09
2023-05-13T08:44:39.782Z,17.15
2023-05-13T08:47:13.687Z,17.18
2023-05-13T08:49:40.338Z,17.30
2023-05-13T08:52:07.179Z,17.42
2023-05-13T08:54:34.464Z,17.54
2023-05-13T08:57:01.589Z,17.65
2023-05-13T08:59:28.068Z,17.77
2023-05-13T09:01:56.353Z,17.97
2023-05-13T09:04:23.967Z,18.01
2023-05-13T09:06:50.546Z,18.09
2023-05-13T09:09:17.202Z,18.11
2023-05-13T09:11:48.294Z,18.20
2023-05-13T09:14:19.091Z,18.30
2023-05-13T09:16:45.572Z,18.27
2023-05-13T09:19:12.385Z,18.38
2023-05-13T09:21:39.567Z,18.40
2023-05-13T09:24:09.525Z,18.41
2023-05-13T09:26:38.367Z,18.48
2023-05-13T09:29:25.724Z,18.53
2023-05-13T09:31:58.114Z,18.68
2023-05-13T09:34:28.394Z,18.81
2023-05-13T09:37:06.095Z,18.86
2023-05-13T09:39:38.017Z,18.96
2023-05-13T09:42:05.581Z,19.06
2023-05-13T09:44:32.846Z,19.08
2023-05-13T09:47:02.324Z,19.15
2023-05-13T09:49:29.135Z,19.06
2023-05-13T09:51:55.671Z,19.06
2023-05-13T09:54:22.181Z,19.22
2023-05-13T09:56:48.807Z,19.35
2023-05-13T09:59:16.105Z,19.43
2023-05-13T10:01:43.563Z,19.48
2023-05-13T10:04:10.953Z,19.47
2023-05-13T10:06:37.679Z,19.38
2023-05-13T10:09:06.782Z,19.43
2023-05-13T10:11:35.929Z,19.56
2023-05-13T10:14:06.123Z,19.64
2023-05-13T10:16:33.246Z,19.61
2023-05-13T10:19:01.012Z,19.68
2023-05-13T10:21:28.111Z,19.75
2023-05-13T10:23:56.053Z,19.75
2023-05-13T10:26:23.659Z,19.67
2023-05-13T10:28:50.654Z,19.87
2023-05-13T10:31:17.582Z,20.05
2023-05-13T10:33:45.801Z,20.05
2023-05-13T10:36:19.985Z,20.04
2023-05-13T10:38:49.216Z,20.10
2023-05-13T10:41:40.524Z,20.18
2023-05-13T10:44:09.293Z,20.23
2023-05-13T10:46:39.449Z,20.33
2023-05-13T10:49:06.980Z,20.37
2023-05-13T10:51:33.549Z,20.40
2023-05-13T10:54:00.081Z,20.45
2023-05-13T10:56:28.438Z,20.55
2023-05-13T10:58:59.225Z,20.50
2023-05-13T11:01:33.701Z,20.38
2023-05-13T11:04:02.926Z,20.44
2023-05-13T11:06:34.252Z,20.38
2023-05-13T11:09:01.470Z,20.43
2023-05-13T11:11:36.629Z,20.59
2023-05-13T11:14:20.830Z,20.72
2023-05-13T11:16:48.873Z,20.78
2023-05-13T11:19:25.672Z,20.89
2023-05-13T11:21:55.503Z,20.91
2023-05-13T11:24:22.972Z,20.81
2023-05-13T11:26:52.473Z,20.84
2023-05-13T11:29:33.222Z,21.05
2023-05-13T11:32:01.519Z,21.10
2023-05-13T11:34:28.685Z,21.05
2023-05-13T11:37:11.020Z,21.02
2023-05-13T11:39:41.675Z,21.00
2023-05-13T11:42:11.596Z,21.17
2023-05-13T11:44:46.697Z,21.26
2023-05-13T11:47:13.344Z,21.27
2023-05-13T11:49:46.830Z,21.33
2023-05-13T11:52:16.624Z,21.42
2023-05-13T11:54:50.104Z,21.58
2023-05-13T11:57:27.666Z,21.55
2023-05-13T12:00:01.197Z,21.55
2023-05-13T12:02:30.354Z,21.70
2023-05-13T12:05:01.904Z,21.71
2023-05-13T12:07:28.448Z,21.69
2023-05-13T12:09:58.150Z,21.74
2023-05-13T12:12:26.763Z,21.85
2023-05-13T12:14:55.349Z,21.86
2023-05-13T12:17:22.426Z,21.86
2023-05-13T12:20:14.504Z,21.90
2023-05-13T12:22:44.121Z,21.97
2023-05-13T12:25:32.758Z,22.16
2023-05-13T12:27:59.725Z,22.16
2023-05-13T12:30:26.300Z,22.19
2023-05-13T12:32:58.836Z,22.27
2023-05-13T12:35:25.298Z,22.30
2023-05-13T12:38:03.097Z,22.26
2023-05-13T12:40:29.763Z,22.14
2023-05-13T12:43:00.554Z,22.16
2023-05-13T12:45:28.912Z,22.23
2023-05-13T12:47:56.998Z,22.22
2023-05-13T12:50:23.891Z,22.27
2023-05-13T12:52:50.428Z,22.27
2023-05-13T12:55:17.199Z,22.30
2023-05-13T12:57:53.700Z,22.26
2023-05-13T13:00:20.547Z,22.33
2023-05-13T13:02:47.077Z,22.26
2023-05-13T13:05:13.590Z,22.32
2023-05-13T13:07:42.165Z,22.33
2023-05-13T13:10:09.461Z,22.26
2023-05-13T13:12:36.144Z,22.21
2023-05-13T13:15:02.854Z,22.26
2023-05-13T13:17:29.323Z,22.18
2023-05-13T13:19:55.798Z,22.13
2023-05-13T13:22:22.263Z,22.18
2023-05-13T13:24:48.694Z,22.18
2023-05-13T13:27:15.278Z,22.21
2023-05-13T13:29:41.694Z,22.36
2023-05-13T13:32:08.341Z,22.39
2023-05-13T13:34:34.900Z,22.45
2023-05-13T13:37:01.362Z,22.46
2023-05-13T13:39:27.838Z,22.65
2023-05-13T13:41:54.478Z,22.86
2023-05-13T13:44:20.920Z,23.00
2023-05-13T13:46:47.390Z,23.21
2023-05-13T13:49:23.240Z,23.59
2023-05-13T13:51:50.633Z,23.76
2023-05-13T13:54:17.135Z,23.78
2023-05-13T13:56:43.717Z,23.51
2023-05-13T13:59:10.257Z,23.61
2023-05-13T14:01:37.227Z,23.66
2023-05-13T14:04:13.757Z,23.76
2023-05-13T14:06:40.729Z,23.88
2023-05-13T14:09:07.600Z,23.96
2023-05-13T14:11:34.133Z,24.05
2023-05-13T14:14:00.966Z,23.93
2023-05-13T14:16:27.739Z,23.82
2023-05-13T14:18:54.382Z,23.88
2023-05-13T14:21:20.935Z,24.19
2023-05-13T14:23:47.477Z,24.27
2023-05-13T14:26:16.724Z,24.28
2023-05-13T14:28:43.681Z,24.38
2023-05-13T14:31:10.362Z,24.32
2023-05-13T14:33:37.140Z,24.36
2023-05-13T14:36:03.951Z,24.43
2023-05-13T14:38:31.223Z,24.23
2023-05-13T14:40:58.379Z,24.25
2023-05-13T14:43:24.977Z,24.30
2023-05-13T14:45:51.512Z,24.43
2023-05-13T14:48:19.152Z,24.38
2023-05-13T14:50:46.332Z,24.12
2023-05-13T14:53:13.240Z,24.13
2023-05-13T14:55:39.775Z,24.16
2023-05-13T14:58:08.994Z,24.31
2023-05-13T15:00:37.737Z,24.31
2023-05-13T15:03:05.530Z,24.51
2023-05-13T15:05:32.257Z,24.40
2023-05-13T15:07:59.194Z,24.34
2023-05-13T15:10:25.785Z,24.42
2023-05-13T15:12:52.300Z,24.34
2023-05-13T15:15:18.824Z,24.40
2023-05-13T15:17:45.573Z,24.57
2023-05-13T15:20:12.594Z,24.68
2023-05-13T15:22:39.055Z,24.52
2023-05-13T15:25:06.023Z,24.46
2023-05-13T15:27:32.558Z,24.33
2023-05-13T15:29:59.254Z,24.47
2023-05-13T15:32:25.794Z,24.51
2023-05-13T15:34:52.279Z,24.30
2023-05-13T15:37:18.748Z,24.31
2023-05-13T15:39:45.186Z,24.33
2023-05-13T15:42:11.651Z,24.33
2023-05-13T15:44:38.185Z,24.26
2023-05-13T15:47:06.232Z,24.35
2023-05-13T15:49:35.795Z,24.42
2023-05-13T15:52:05.536Z,24.50
2023-05-13T15:54:33.714Z,24.59
2023-05-13T15:57:00.388Z,24.64
2023-05-13T15:59:26.934Z,24.48
2023-05-13T16:01:53.581Z,24.57
2023-05-13T16:04:20.194Z,24.52
2023-05-13T16:06:46.652Z,24.24
2023-05-13T16:09:13.130Z,23.92
2023-05-13T16:11:39.595Z,23.42
2023-05-13T16:14:07.691Z,22.86
2023-05-13T16:16:34.342Z,22.59
2023-05-13T16:19:03.516Z,22.39
2023-05-13T16:21:31.605Z,22.11
2023-05-13T16:23:58.238Z,21.88
2023-05-13T16:26:24.751Z,21.71
2023-05-13T16:28:51.615Z,21.67
2023-05-13T16:31:18.260Z,21.60
2023-05-13T16:33:44.777Z,21.42
2023-05-13T16:36:14.550Z,21.38
2023-05-13T16:38:41.645Z,21.28
2023-05-13T16:41:08.739Z,21.14
2023-05-13T16:43:35.256Z,21.07
2023-05-13T16:46:02.671Z,20.93
2023-05-13T16:48:29.260Z,20.83
2023-05-13T16:50:56.277Z,20.76
2023-05-13T16:53:23.239Z,20.65
2023-05-13T16:55:50.336Z,20.58
2023-05-13T16:58:17.027Z,20.56
2023-05-13T17:00:44.025Z,20.51
2023-05-13T17:03:10.966Z,20.53
2023-05-13T17:05:37.652Z,20.53
2023-05-13T17:08:04.309Z,20.51
2023-05-13T17:10:30.791Z,20.50
2023-05-13T17:12:58.420Z,20.44
2023-05-13T17:15:25.133Z,20.38
2023-05-13T17:17:51.675Z,20.38
2023-05-13T17:20:19.766Z,20.37
2023-05-13T17:22:47.380Z,20.27
2023-05-13T17:25:14.794Z,20.21
2023-05-13T17:27:41.420Z,20.20
2023-05-13T17:30:08.700Z,20.15
2023-05-13T17:32:35.682Z,20.10
2023-05-13T17:35:03.942Z,20.07
2023-05-13T17:37:30.508Z,20.00
2023-05-13T17:40:00.577Z,20.11
2023-05-13T17:42:28.890Z,20.08
2023-05-13T17:44:55.502Z,19.98
2023-05-13T17:47:22.066Z,19.90
2023-05-13T17:49:48.551Z,19.79
2023-05-13T17:52:15.009Z,19.72
2023-05-13T17:54:41.545Z,19.67
2023-05-13T17:57:09.925Z,19.63
2023-05-13T17:59:36.930Z,19.59
2023-05-13T18:02:03.545Z,19.56
2023-05-13T18:04:30.028Z,19.51
2023-05-13T18:06:56.697Z,19.45
2023-05-13T18:09:23.172Z,19.39
2023-05-13T18:11:49.634Z,19.32
2023-05-13T18:14:16.079Z,19.26
2023-05-13T18:16:42.686Z,19.20
2023-05-13T18:19:09.329Z,19.17
2023-05-13T18:21:35.844Z,19.08
2023-05-13T18:24:02.354Z,19.03
2023-05-13T18:26:28.809Z,19.00
2023-05-13T18:28:55.300Z,18.95
2023-05-13T18:31:21.875Z,18.89
2023-05-13T18:33:48.426Z,18.82
2023-05-13T18:36:14.902Z,18.72
2023-05-13T18:38:41.481Z,18.68
2023-05-13T18:41:07.999Z,18.57
2023-05-13T18:43:34.582Z,18.50
2023-05-13T18:46:01.133Z,18.43
2023-05-13T18:48:27.681Z,18.39
2023-05-13T18:50:54.158Z,18.33
2023-05-13T18:53:20.727Z,18.22
2023-05-13T18:55:47.246Z,18.15
2023-05-13T18:58:13.871Z,18.07
2023-05-13T19:00:40.392Z,18.01
2023-05-13T19:03:07.006Z,18.02
2023-05-13T19:05:33.761Z,17.97
2023-05-13T19:08:00.831Z,17.89
2023-05-13T19:10:27.446Z,17.80
2023-05-13T19:12:53.879Z,17.78
2023-05-13T19:15:25.120Z,17.74
2023-05-13T19:17:52.383Z,17.64
2023-05-13T19:20:18.999Z,17.63
2023-05-13T19:22:45.544Z,17.61
2023-05-13T19:25:12.056Z,17.51
2023-05-13T19:27:38.890Z,17.48
2023-05-13T19:30:06.359Z,17.44
2023-05-13T19:32:32.841Z,17.35
2023-05-13T19:34:59.397Z,17.32
2023-05-13T19:37:26.383Z,17.22
2023-05-13T19:39:52.873Z,17.08
2023-05-13T19:42:19.336Z,17.10
2023-05-13T19:44:46.115Z,16.99
2023-05-13T19:47:12.597Z,16.98
2023-05-13T19:49:39.385Z,16.91
2023-05-13T19:52:06.531Z,16.88
2023-05-13T19:54:33.161Z,16.84
2023-05-13T19:56:59.800Z,16.75
2023-05-13T19:59:26.282Z,16.70
2023-05-13T20:01:52.805Z,16.67
2023-05-13T20:04:19.338Z,16.62
2023-05-13T20:06:45.827Z,16.56
2023-05-13T20:09:12.386Z,16.49
2023-05-13T20:11:38.868Z,16.46
2023-05-13T20:14:05.331Z,16.39
2023-05-13T20:16:31.835Z,16.39
2023-05-13T20:18:58.422Z,16.37
2023-05-13T20:21:25.005Z,16.32
2023-05-13T20:23:51.468Z,16.22
2023-05-13T20:26:17.939Z,16.19
2023-05-13T20:28:45.682Z,16.08
2023-05-13T20:31:12.293Z,16.09
2023-05-13T20:33:38.774Z,16.03
2023-05-13T20:36:06.759Z,15.95
2023-05-13T20:38:33.233Z,15.91
2023-05-13T20:40:59.888Z,15.86
2023-05-13T20:43:26.444Z,15.79
2023-05-13T20:45:52.955Z,15.77
2023-05-13T20:48:19.559Z,15.69
2023-05-13T20:50:46.036Z,15.68
2023-05-13T20:53:12.608Z,15.59
2023-05-13T20:55:39.215Z,15.55
2023-05-13T20:58:05.767Z,15.52
2023-05-13T21:00:32.217Z,15.44
2023-05-13T21:02:59.967Z,15.42
2023-05-13T21:05:27.771Z,15.40
2023-05-13T21:07:54.240Z,15.32
2023-05-13T21:10:21.343Z,15.29
2023-05-13T21:12:48.231Z,15.25
2023-05-13T21:15:14.969Z,15.22
2023-05-13T21:17:41.553Z,15.17
2023-05-13T21:20:11.089Z,15.14
2023-05-13T21:22:37.537Z,15.09
2023-05-13T21:25:04.382Z,15.01
2023-05-13T21:27:30.942Z,15.03
2023-05-13T21:29:57.402Z,14.97
2023-05-13T21:32:23.857Z,14.96
2023-05-13T21:34:50.353Z,14.94
2023-05-13T21:37:16.880Z,14.87
2023-05-13T21:39:43.380Z,14.84
2023-05-13T21:42:09.820Z,14.82
2023-05-13T21:44:36.328Z,14.78
2023-05-13T21:47:02.822Z,14.73
2023-05-13T21:49:29.300Z,14.71
2023-05-13T21:51:55.786Z,14.63
2023-05-13T21:54:22.228Z,14.63
2023-05-13T21:56:48.733Z,14.58
2023-05-13T21:59:15.297Z,14.54
2023-05-13T22:01:41.798Z,14.48
2023-05-13T22:04:08.865Z,14.45
2023-05-13T22:06:35.563Z,14.38
2023-05-13T22:09:02.111Z,14.36
2023-05-13T22:11:28.615Z,14.28
2023-05-13T22:13:55.126Z,14.27
2023-05-13T22:16:21.862Z,14.21
2023-05-13T22:18:49.515Z,14.15
2023-05-13T22:21:16.101Z,14.11
2023-05-13T22:23:42.640Z,14.06
2023-05-13T22:26:09.151Z,14.02
2023-05-13T22:28:35.593Z,13.96
2023-05-13T22:31:02.088Z,13.92
2023-05-13T22:33:28.613Z,13.86
2023-05-13T22:35:55.101Z,13.84
2023-05-13T22:38:21.608Z,13.79
2023-05-13T22:40:48.093Z,13.80
2023-05-13T22:43:14.565Z,13.77
2023-05-13T22:45:41.393Z,13.76
2023-05-13T22:48:08.244Z,13.73
2023-05-13T22:50:34.865Z,13.70
2023-05-13T22:53:01.314Z,13.68
2023-05-13T22:55:27.755Z,13.64
2023-05-13T22:57:54.701Z,13.58
2023-05-13T23:00:21.452Z,13.49
2023-05-13T23:02:48.043Z,13.49
2023-05-13T23:05:14.594Z,13.44
2023-05-13T23:07:41.201Z,13.38
2023-05-13T23:10:08.082Z,13.35
2023-05-13T23:12:34.562Z,13.34
2023-05-13T23:15:01.057Z,13.31
2023-05-13T23:17:27.512Z,13.27
2023-05-13T23:19:54.061Z,13.26
2023-05-13T23:22:20.520Z,13.22
2023-05-13T23:24:47.007Z,13.19
2023-05-13T23:27:13.605Z,13.18
2023-05-13T23:29:41.791Z,13.15
2023-05-13T23:32:08.397Z,13.08
2023-05-13T23:34:36.280Z,13.07
2023-05-13T23:37:02.792Z,13.03
2023-05-13T23:39:29.274Z,12.97
2023-05-13T23:41:55.734Z,12.91
2023-05-13T23:44:22.236Z,12.93
2023-05-13T23:46:49.045Z,12.87
2023-05-13T23:49:16.464Z,12.86
2023-05-13T23:51:42.922Z,12.81
2023-05-13T23:54:09.358Z,12.74
2023-05-13T23:56:35.805Z,12.72
2023-05-13T23:59:02.504Z,12.68
